createdAt,value
2019-03-28T00:01:02.948Z,8.40
2019-03-28T00:02:08.396Z,8.40
2019-03-28T00:03:13.352Z,8.40
2019-03-28T00:04:18.515Z,8.30
2019-03-28T00:05:23.452Z,8.30
2019-03-28T00:06:28.304Z,8.30
2019-03-28T00:07:33.343Z,8.30
2019-03-28T00:08:38.694Z,8.30
2019-03-28T00:09:43.837Z,8.40
2019-03-28T00:10:48.818Z,8.40
2019-03-28T00:11:53.722Z,8.40
2019-03-28T00:12:59.119Z,8.40
2019-03-28T00:14:04.024Z,8.40
2019-03-28T00:15:08.975Z,8.40
2019-03-28T00:16:13.871Z,8.40
2019-03-28T00:17:18.859Z,8.40
2019-03-28T00:18:23.723Z,8.40
2019-03-28T00:19:28.898Z,8.40
2019-03-28T00:20:33.789Z,8.40
2019-03-28T00:21:38.663Z,8.40
2019-03-28T00:22:52.404Z,8.50
2019-03-28T00:24:10.594Z,8.50
2019-03-28T00:25:15.758Z,8.50
2019-03-28T00:26:29.949Z,8.50
2019-03-28T00:27:27.313Z,8.50
2019-03-28T00:28:32.175Z,8.50
2019-03-28T00:29:37.533Z,8.40
2019-03-28T00:30:42.450Z,8.40
2019-03-28T00:31:47.980Z,8.40
2019-03-28T00:32:53.012Z,8.40
2019-03-28T00:33:57.941Z,8.40
2019-03-28T00:35:03.019Z,8.40
2019-03-28T00:36:07.889Z,8.40
2019-03-28T00:37:12.789Z,8.40
2019-03-28T00:38:17.810Z,8.40
2019-03-28T00:39:22.773Z,8.40
2019-03-28T00:40:27.744Z,8.40
2019-03-28T00:41:32.668Z,8.40
2019-03-28T00:42:37.533Z,8.40
2019-03-28T00:43:42.738Z,8.40
2019-03-28T00:44:48.045Z,8.40
2019-03-28T00:45:52.908Z,8.40
2019-03-28T00:46:57.821Z,8.40
2019-03-28T00:48:02.735Z,8.40
2019-03-28T00:49:07.655Z,8.40
2019-03-28T00:50:12.789Z,8.40
2019-03-28T00:51:17.707Z,8.50
2019-03-28T00:52:22.714Z,8.40
2019-03-28T00:53:27.819Z,8.40
2019-03-28T00:54:32.696Z,8.40
2019-03-28T00:55:37.596Z,8.40
2019-03-28T00:56:47.349Z,8.40
2019-03-28T00:57:51.681Z,8.50
2019-03-28T00:58:56.585Z,8.50
2019-03-28T01:00:01.525Z,8.50
2019-03-28T01:01:06.491Z,8.60
2019-03-28T01:02:11.554Z,8.60
2019-03-28T01:03:16.543Z,8.60
2019-03-28T01:04:21.461Z,8.60
2019-03-28T01:05:26.368Z,8.60
2019-03-28T01:06:31.368Z,8.60
2019-03-28T01:07:37.055Z,8.60
2019-03-28T01:08:41.965Z,8.50
2019-03-28T01:09:48.713Z,8.50
2019-03-28T01:10:53.641Z,8.50
2019-03-28T01:11:58.577Z,8.50
2019-03-28T01:13:03.500Z,8.50
2019-03-28T01:14:08.459Z,8.50
2019-03-28T01:15:13.503Z,8.50
2019-03-28T01:16:18.429Z,8.50
2019-03-28T01:17:23.915Z,8.50
2019-03-28T01:18:28.781Z,8.50
2019-03-28T01:19:34.000Z,8.40
2019-03-28T01:20:39.245Z,8.40
2019-03-28T01:21:44.482Z,8.40
2019-03-28T01:22:49.894Z,8.40
2019-03-28T01:23:55.542Z,8.40
2019-03-28T01:25:01.808Z,8.40
2019-03-28T01:26:07.171Z,8.40
2019-03-28T01:27:12.385Z,8.40
2019-03-28T01:28:17.563Z,8.50
2019-03-28T01:29:22.797Z,8.50
2019-03-28T01:30:28.060Z,8.50
2019-03-28T01:31:33.357Z,8.50
2019-03-28T01:32:38.517Z,8.50
2019-03-28T01:33:43.756Z,8.40
2019-03-28T01:34:49.252Z,8.40
2019-03-28T01:35:54.569Z,8.40
2019-03-28T01:37:01.560Z,8.40
2019-03-28T01:38:06.791Z,8.40
2019-03-28T01:39:12.067Z,8.40
2019-03-28T01:40:17.312Z,8.40
2019-03-28T01:41:22.495Z,8.40
2019-03-28T01:42:27.788Z,8.40
2019-03-28T01:43:32.891Z,8.40
2019-03-28T01:44:38.133Z,8.40
2019-03-28T01:45:43.477Z,8.40
2019-03-28T01:46:49.086Z,8.40
2019-03-28T01:47:54.416Z,8.40
2019-03-28T01:48:59.748Z,8.30
2019-03-28T01:50:05.470Z,8.30
2019-03-28T01:51:10.804Z,8.30
2019-03-28T01:52:16.128Z,8.30
2019-03-28T01:53:21.412Z,8.30
2019-03-28T01:54:26.591Z,8.30
2019-03-28T01:55:31.917Z,8.30
2019-03-28T01:56:37.245Z,8.30
2019-03-28T01:57:42.634Z,8.30
2019-03-28T01:58:48.406Z,8.30
2019-03-28T01:59:53.775Z,8.30
2019-03-28T02:00:58.984Z,8.30
2019-03-28T02:02:04.205Z,8.30
2019-03-28T02:03:09.888Z,8.30
2019-03-28T02:04:15.056Z,8.30
2019-03-28T02:05:20.238Z,8.30
2019-03-28T02:06:25.440Z,8.40
2019-03-28T02:07:30.588Z,8.30
2019-03-28T02:08:35.772Z,8.30
2019-03-28T02:09:41.072Z,8.30
2019-03-28T02:10:46.702Z,8.30
2019-03-28T02:11:52.120Z,8.30
2019-03-28T02:12:57.252Z,8.40
2019-03-28T02:14:02.430Z,8.30
2019-03-28T02:15:08.392Z,8.30
2019-03-28T02:16:13.826Z,8.30
2019-03-28T02:17:19.120Z,8.30
2019-03-28T02:18:24.307Z,8.30
2019-03-28T02:19:29.873Z,8.30
2019-03-28T02:20:35.113Z,8.30
2019-03-28T02:21:40.535Z,8.30
2019-03-28T02:22:46.115Z,8.30
2019-03-28T02:23:51.646Z,8.30
2019-03-28T02:24:57.038Z,8.30
2019-03-28T02:26:02.354Z,8.30
2019-03-28T02:27:07.626Z,8.30
2019-03-28T02:28:13.147Z,8.30
2019-03-28T02:29:18.349Z,8.30
2019-03-28T02:30:32.695Z,8.30
2019-03-28T02:31:37.930Z,8.30
2019-03-28T02:32:43.451Z,8.30
2019-03-28T02:33:49.123Z,8.30
2019-03-28T02:34:54.329Z,8.30
2019-03-28T02:35:59.653Z,8.30
2019-03-28T02:37:04.883Z,8.30
2019-03-28T02:38:10.159Z,8.30
2019-03-28T02:39:15.391Z,8.30
2019-03-28T02:40:20.597Z,8.30
2019-03-28T02:41:26.017Z,8.30
2019-03-28T02:42:31.188Z,8.30
2019-03-28T02:43:37.098Z,8.30
2019-03-28T02:44:42.285Z,8.30
2019-03-28T02:45:47.478Z,8.30
2019-03-28T02:46:52.857Z,8.30
2019-03-28T02:47:58.189Z,8.30
2019-03-28T02:49:04.637Z,8.30
2019-03-28T02:50:09.956Z,8.30
2019-03-28T02:51:15.252Z,8.40
2019-03-28T02:52:21.524Z,8.30
2019-03-28T02:53:27.149Z,8.30
2019-03-28T02:54:32.321Z,8.30
2019-03-28T02:55:37.702Z,8.30
2019-03-28T02:56:43.189Z,8.30
2019-03-28T02:57:48.458Z,8.30
2019-03-28T02:58:53.705Z,8.30
2019-03-28T02:59:59.020Z,8.30
2019-03-28T03:01:04.398Z,8.30
2019-03-28T03:02:09.832Z,8.20
2019-03-28T03:03:15.258Z,8.30
2019-03-28T03:04:20.685Z,8.30
2019-03-28T03:05:25.947Z,8.20
2019-03-28T03:06:31.182Z,8.20
2019-03-28T03:07:36.380Z,8.20
2019-03-28T03:08:41.737Z,8.20
2019-03-28T03:09:47.042Z,8.20
2019-03-28T03:10:52.371Z,8.20
2019-03-28T03:11:57.685Z,8.20
2019-03-28T03:13:03.061Z,8.20
2019-03-28T03:14:08.360Z,8.20
2019-03-28T03:15:14.109Z,8.20
2019-03-28T03:16:19.390Z,8.20
2019-03-28T03:17:24.596Z,8.10
2019-03-28T03:18:29.810Z,8.20
2019-03-28T03:19:35.079Z,8.10
2019-03-28T03:20:40.245Z,8.10
2019-03-28T03:21:45.358Z,8.20
2019-03-28T03:22:50.950Z,8.10
2019-03-28T03:23:56.288Z,8.10
2019-03-28T03:25:01.675Z,8.10
2019-03-28T03:26:07.039Z,8.10
2019-03-28T03:27:12.407Z,8.10
2019-03-28T03:28:17.563Z,8.10
2019-03-28T03:29:22.853Z,8.10
2019-03-28T03:30:28.428Z,8.10
2019-03-28T03:31:33.779Z,8.10
2019-03-28T03:32:39.073Z,8.10
2019-03-28T03:33:44.391Z,8.10
2019-03-28T03:34:49.771Z,8.10
2019-03-28T03:35:54.957Z,8.10
2019-03-28T03:37:00.154Z,8.10
2019-03-28T03:38:05.401Z,8.10
2019-03-28T03:39:11.261Z,8.10
2019-03-28T03:40:16.667Z,8.10
2019-03-28T03:41:21.955Z,8.10
2019-03-28T03:42:27.366Z,8.10
2019-03-28T03:43:32.645Z,8.10
2019-03-28T03:44:37.959Z,8.10
2019-03-28T03:45:43.151Z,8.10
2019-03-28T03:46:48.351Z,8.10
2019-03-28T03:47:53.668Z,8.10
2019-03-28T03:48:58.815Z,8.10
2019-03-28T03:50:04.202Z,8.10
2019-03-28T03:51:09.471Z,8.10
2019-03-28T03:52:15.677Z,8.10
2019-03-28T03:53:20.831Z,8.10
2019-03-28T03:54:26.218Z,8.10
2019-03-28T03:55:31.538Z,8.10
2019-03-28T03:56:36.859Z,8.10
2019-03-28T03:57:42.499Z,8.10
2019-03-28T03:58:48.464Z,8.10
2019-03-28T03:59:53.830Z,8.10
2019-03-28T04:00:59.162Z,8.00
2019-03-28T04:02:04.401Z,8.10
2019-03-28T04:03:09.672Z,8.00
2019-03-28T04:04:14.913Z,8.00
2019-03-28T04:05:20.377Z,8.00
2019-03-28T04:06:25.603Z,8.00
2019-03-28T04:07:30.789Z,8.00
2019-03-28T04:08:36.005Z,8.00
2019-03-28T04:09:41.479Z,8.10
2019-03-28T04:10:47.600Z,8.00
2019-03-28T04:11:52.964Z,8.00
2019-03-28T04:12:58.105Z,8.00
2019-03-28T04:14:03.394Z,8.00
2019-03-28T04:15:08.712Z,8.00
2019-03-28T04:16:13.911Z,8.00
2019-03-28T04:17:19.510Z,8.00
2019-03-28T04:18:24.900Z,8.00
2019-03-28T04:19:30.253Z,8.00
2019-03-28T04:20:35.438Z,8.00
2019-03-28T04:21:41.018Z,8.00
2019-03-28T04:22:46.538Z,8.00
2019-03-28T04:23:51.822Z,8.00
2019-03-28T04:24:57.044Z,8.00
2019-03-28T04:26:02.371Z,8.00
2019-03-28T04:27:07.685Z,8.00
2019-03-28T04:28:13.112Z,8.00
2019-03-28T04:29:18.341Z,8.00
2019-03-28T04:30:23.669Z,8.00
2019-03-28T04:31:28.936Z,8.00
2019-03-28T04:32:34.169Z,8.00
2019-03-28T04:33:39.568Z,8.00
2019-03-28T04:34:46.359Z,8.00
2019-03-28T04:35:51.724Z,8.00
2019-03-28T04:36:56.985Z,8.00
2019-03-28T04:38:02.171Z,8.00
2019-03-28T04:39:07.538Z,8.00
2019-03-28T04:40:12.797Z,8.00
2019-03-28T04:41:19.066Z,8.00
2019-03-28T04:42:24.591Z,8.00
2019-03-28T04:43:29.806Z,8.00
2019-03-28T04:44:35.223Z,7.90
2019-03-28T04:45:43.620Z,8.00
2019-03-28T04:46:48.869Z,8.00
2019-03-28T04:47:53.997Z,7.90
2019-03-28T04:48:59.216Z,8.00
2019-03-28T04:50:04.552Z,7.90
2019-03-28T04:51:11.777Z,7.90
2019-03-28T04:52:17.291Z,7.90
2019-03-28T04:53:22.644Z,7.90
2019-03-28T04:54:29.377Z,7.90
2019-03-28T04:55:34.974Z,7.90
2019-03-28T04:56:40.417Z,7.90
2019-03-28T04:57:45.659Z,7.90
2019-03-28T04:58:51.082Z,7.90
2019-03-28T04:59:56.348Z,7.90
2019-03-28T05:01:01.799Z,7.90
2019-03-28T05:02:07.151Z,7.90
2019-03-28T05:03:12.442Z,7.90
2019-03-28T05:04:20.824Z,7.90
2019-03-28T05:05:24.658Z,7.90
2019-03-28T05:06:30.168Z,7.90
2019-03-28T05:07:35.667Z,7.90
2019-03-28T05:08:40.945Z,7.90
2019-03-28T05:09:46.158Z,7.90
2019-03-28T05:10:51.474Z,7.90
2019-03-28T05:11:56.872Z,7.90
2019-03-28T05:13:02.053Z,7.90
2019-03-28T05:14:07.367Z,7.90
2019-03-28T05:15:12.963Z,7.90
2019-03-28T05:16:18.195Z,7.90
2019-03-28T05:17:23.788Z,7.90
2019-03-28T05:18:29.077Z,7.90
2019-03-28T05:19:34.375Z,7.90
2019-03-28T05:20:40.435Z,7.90
2019-03-28T05:21:45.690Z,7.90
2019-03-28T05:22:51.136Z,7.90
2019-03-28T05:23:56.363Z,7.90
2019-03-28T05:25:01.569Z,7.90
2019-03-28T05:26:07.185Z,7.90
2019-03-28T05:27:12.588Z,7.90
2019-03-28T05:28:17.840Z,7.90
2019-03-28T05:29:23.254Z,7.90
2019-03-28T05:30:28.593Z,8.00
2019-03-28T05:31:34.316Z,8.00
2019-03-28T05:32:39.423Z,8.00
2019-03-28T05:33:44.430Z,8.00
2019-03-28T05:34:49.339Z,8.00
2019-03-28T05:35:54.242Z,8.00
2019-03-28T05:36:59.264Z,8.00
2019-03-28T05:38:04.356Z,8.00
2019-03-28T05:39:09.358Z,8.10
2019-03-28T05:40:14.501Z,8.10
2019-03-28T05:41:19.697Z,8.10
2019-03-28T05:42:24.628Z,8.10
2019-03-28T05:43:29.544Z,8.10
2019-03-28T05:44:34.589Z,8.10
2019-03-28T05:45:39.477Z,8.10
2019-03-28T05:46:45.057Z,8.10
2019-03-28T05:47:50.202Z,8.10
2019-03-28T05:48:55.080Z,8.10
2019-03-28T05:50:00.272Z,8.10
2019-03-28T05:51:05.630Z,8.10
2019-03-28T05:52:11.790Z,8.10
2019-03-28T05:53:16.896Z,8.10
2019-03-28T05:54:21.795Z,8.10
2019-03-28T05:55:26.899Z,8.20
2019-03-28T05:56:31.843Z,8.20
2019-03-28T05:57:36.741Z,8.20
2019-03-28T05:58:41.890Z,8.20
2019-03-28T05:59:46.849Z,8.30
2019-03-28T06:00:51.852Z,8.30
2019-03-28T06:01:56.936Z,8.30
2019-03-28T06:03:02.029Z,8.40
2019-03-28T06:04:07.052Z,8.40
2019-03-28T06:05:12.248Z,8.40
2019-03-28T06:06:17.399Z,8.40
2019-03-28T06:07:23.545Z,8.50
2019-03-28T06:08:28.674Z,8.50
2019-03-28T06:09:33.797Z,8.50
2019-03-28T06:10:38.689Z,8.60
2019-03-28T06:11:43.821Z,8.60
2019-03-28T06:12:49.125Z,8.60
2019-03-28T06:13:54.116Z,8.70
2019-03-28T06:14:59.111Z,8.70
2019-03-28T06:16:04.092Z,8.70
2019-03-28T06:17:14.479Z,8.80
2019-03-28T06:18:20.363Z,8.80
2019-03-28T06:19:25.498Z,8.90
2019-03-28T06:20:30.504Z,8.90
2019-03-28T06:21:35.534Z,8.90
2019-03-28T06:22:40.573Z,9.00
2019-03-28T06:23:45.498Z,9.00
2019-03-28T06:24:50.663Z,9.10
2019-03-28T06:25:55.715Z,9.10
2019-03-28T06:27:01.724Z,9.10
2019-03-28T06:28:06.758Z,9.20
2019-03-28T06:29:23.273Z,9.20
2019-03-28T06:30:18.820Z,9.30
2019-03-28T06:31:27.295Z,9.30
2019-03-28T06:32:42.201Z,9.40
2019-03-28T06:33:39.209Z,9.40
2019-03-28T06:34:44.411Z,9.50
2019-03-28T06:35:49.272Z,9.50
2019-03-28T06:36:54.202Z,9.50
2019-03-28T06:37:59.096Z,9.60
2019-03-28T06:39:05.614Z,9.60
2019-03-28T06:40:11.773Z,9.70
2019-03-28T06:41:16.746Z,9.70
2019-03-28T06:42:22.234Z,9.80
2019-03-28T06:43:27.569Z,9.80
2019-03-28T06:44:32.766Z,9.90
2019-03-28T06:45:37.835Z,9.90
2019-03-28T06:46:42.875Z,10.00
2019-03-28T06:47:48.217Z,10.00
2019-03-28T06:48:53.183Z,10.00
2019-03-28T06:49:58.185Z,9.90
2019-03-28T06:51:03.117Z,10.00
2019-03-28T06:52:58.483Z,10.00
2019-03-28T06:54:04.416Z,10.00
2019-03-28T06:55:10.101Z,10.00
2019-03-28T06:56:15.323Z,10.00
2019-03-28T06:57:20.486Z,10.00
2019-03-28T06:58:25.605Z,9.90
2019-03-28T06:59:37.194Z,10.00
2019-03-28T07:00:37.454Z,10.00
2019-03-28T07:01:42.682Z,9.90
2019-03-28T07:02:47.937Z,9.90
2019-03-28T07:03:52.923Z,9.90
2019-03-28T07:04:58.127Z,9.90
2019-03-28T07:06:03.176Z,9.90
2019-03-28T07:07:08.248Z,9.90
2019-03-28T07:08:13.338Z,9.90
2019-03-28T07:09:18.553Z,9.80
2019-03-28T07:10:23.670Z,9.80
2019-03-28T07:11:28.872Z,9.80
2019-03-28T07:12:33.897Z,9.90
2019-03-28T07:13:39.013Z,9.90
2019-03-28T07:14:43.954Z,9.80
2019-03-28T07:16:08.320Z,9.80
2019-03-28T07:17:13.878Z,9.90
2019-03-28T07:18:18.782Z,9.90
2019-03-28T07:19:24.071Z,9.90
2019-03-28T07:20:29.056Z,10.00
2019-03-28T07:21:34.056Z,10.00
2019-03-28T07:22:39.406Z,10.00
2019-03-28T07:23:44.564Z,10.00
2019-03-28T07:24:49.708Z,10.10
2019-03-28T07:25:56.727Z,10.10
2019-03-28T07:27:01.797Z,10.00
2019-03-28T07:28:06.759Z,10.10
2019-03-28T07:29:12.080Z,10.10
2019-03-28T07:30:17.918Z,10.10
2019-03-28T07:31:22.981Z,10.00
2019-03-28T07:32:27.999Z,10.10
2019-03-28T07:33:33.130Z,10.00
2019-03-28T07:34:39.768Z,10.10
2019-03-28T07:35:44.740Z,10.00
2019-03-28T07:36:49.965Z,10.10
2019-03-28T07:37:55.096Z,10.10
2019-03-28T07:39:00.087Z,10.00
2019-03-28T07:40:05.466Z,10.00
2019-03-28T07:41:10.554Z,10.00
2019-03-28T07:42:15.650Z,9.90
2019-03-28T07:43:20.549Z,9.90
2019-03-28T07:44:25.540Z,10.00
2019-03-28T07:45:30.643Z,10.00
2019-03-28T07:46:35.732Z,10.00
2019-03-28T07:47:40.656Z,10.00
2019-03-28T07:48:46.285Z,10.00
2019-03-28T07:49:51.566Z,9.90
2019-03-28T07:50:56.498Z,9.90
2019-03-28T07:52:03.408Z,9.90
2019-03-28T07:53:08.098Z,9.90
2019-03-28T07:54:16.293Z,10.00
2019-03-28T07:55:21.189Z,10.00
2019-03-28T07:56:26.103Z,10.10
2019-03-28T08:14:14.647Z,11.30
2019-03-28T08:15:19.575Z,11.40
2019-03-28T08:16:24.603Z,11.70
2019-03-28T08:17:29.623Z,11.90
2019-03-28T08:18:34.703Z,12.20
2019-03-28T08:19:41.551Z,12.50
2019-03-28T08:20:48.482Z,12.80
2019-03-28T08:21:53.430Z,13.10
2019-03-28T08:22:58.890Z,13.50
2019-03-28T08:24:03.933Z,13.80
2019-03-28T08:25:11.962Z,14.00
2019-03-28T08:26:19.329Z,14.10
2019-03-28T08:27:24.302Z,14.50
2019-03-28T08:28:29.306Z,14.60
2019-03-28T08:29:34.246Z,14.50
2019-03-28T08:30:39.878Z,14.50
2019-03-28T08:31:47.291Z,14.70
2019-03-28T08:32:52.338Z,14.90
2019-03-28T08:33:57.284Z,15.30
2019-03-28T08:35:04.151Z,15.70
2019-03-28T08:36:09.116Z,16.00
2019-03-28T08:37:14.968Z,16.30
2019-03-28T08:38:22.198Z,16.80
2019-03-28T08:39:29.575Z,17.20
2019-03-28T08:40:39.908Z,17.60
2019-03-28T08:41:48.853Z,17.80
2019-03-28T08:42:54.140Z,18.10
2019-03-28T08:43:59.255Z,18.10
2019-03-28T08:45:04.268Z,18.30
2019-03-28T08:46:11.832Z,18.20
2019-03-28T08:47:16.817Z,18.30
2019-03-28T08:48:21.798Z,18.20
2019-03-28T08:49:28.476Z,18.20
2019-03-28T08:50:33.365Z,18.10
2019-03-28T08:51:38.389Z,18.10
2019-03-28T08:52:43.364Z,18.20
2019-03-28T08:53:48.391Z,18.30
2019-03-28T08:54:53.536Z,18.00
2019-03-28T08:55:58.618Z,18.00
2019-03-28T08:57:03.566Z,17.50
2019-03-28T08:58:08.501Z,17.20
2019-03-28T08:59:13.588Z,17.10
2019-03-28T09:00:32.217Z,16.90
2019-03-28T09:01:26.045Z,16.80
2019-03-28T09:02:31.038Z,16.80
2019-03-28T09:03:36.147Z,17.00
2019-03-28T09:04:41.193Z,17.40
2019-03-28T09:05:46.381Z,17.70
2019-03-28T09:06:51.423Z,17.80
2019-03-28T09:07:56.439Z,18.10
2019-03-28T09:09:01.493Z,18.30
2019-03-28T09:10:06.914Z,18.50
2019-03-28T09:11:12.330Z,18.80
2019-03-28T09:12:17.273Z,19.10
2019-03-28T09:16:18.968Z,18.90
2019-03-28T09:18:35.395Z,18.60
2019-03-28T09:19:41.511Z,18.80
2019-03-28T09:20:46.931Z,18.90
2019-03-28T09:21:51.878Z,19.10
2019-03-28T09:22:56.996Z,19.10
2019-03-28T09:24:01.940Z,18.80
2019-03-28T09:25:06.971Z,18.60
2019-03-28T09:26:12.037Z,18.30
2019-03-28T09:27:17.036Z,18.20
2019-03-28T09:28:22.123Z,18.20
2019-03-28T09:29:27.553Z,18.10
2019-03-28T09:30:48.225Z,18.20
2019-03-28T09:31:47.053Z,18.60
2019-03-28T09:32:52.082Z,18.70
2019-03-28T09:33:57.182Z,18.80
2019-03-28T09:35:03.133Z,18.60
2019-03-28T09:36:08.378Z,18.20
2019-03-28T09:37:13.674Z,18.50
2019-03-28T09:38:18.974Z,18.00
2019-03-28T09:39:25.074Z,18.10
2019-03-28T09:40:30.357Z,18.40
2019-03-28T09:41:35.582Z,18.80
2019-03-28T09:42:40.839Z,19.30
2019-03-28T09:43:55.324Z,19.50
2019-03-28T09:44:53.014Z,19.50
2019-03-28T09:46:00.338Z,19.30
2019-03-28T09:47:05.264Z,19.10
2019-03-28T09:48:11.800Z,19.20
2019-03-28T09:49:17.348Z,19.40
2019-03-28T09:50:22.611Z,19.60
2019-03-28T09:51:27.961Z,19.70
2019-03-28T09:52:33.084Z,19.40
2019-03-28T09:53:38.322Z,18.90
2019-03-28T09:54:43.563Z,19.00
2019-03-28T09:55:49.058Z,18.70
2019-03-28T09:56:54.484Z,18.80
2019-03-28T09:57:59.763Z,19.00
2019-03-28T09:59:05.130Z,18.60
2019-03-28T10:00:11.462Z,18.40
2019-03-28T10:01:16.746Z,18.20
2019-03-28T10:02:21.947Z,18.00
2019-03-28T10:03:27.286Z,17.60
2019-03-28T10:04:32.627Z,17.50
2019-03-28T10:05:38.309Z,17.40
2019-03-28T10:06:43.765Z,17.10
2019-03-28T10:07:49.424Z,17.10
2019-03-28T10:08:54.661Z,17.30
2019-03-28T10:10:00.587Z,17.30
2019-03-28T10:11:06.003Z,17.40
2019-03-28T10:12:11.271Z,17.50
2019-03-28T10:13:16.427Z,17.60
2019-03-28T10:14:21.662Z,17.60
2019-03-28T10:15:27.038Z,17.60
2019-03-28T10:16:32.356Z,17.50
2019-03-28T10:17:37.497Z,17.40
2019-03-28T10:18:42.697Z,17.10
2019-03-28T10:19:48.193Z,16.90
2019-03-28T10:20:53.704Z,16.80
2019-03-28T10:21:59.076Z,16.70
2019-03-28T10:23:04.363Z,16.70
2019-03-28T10:24:09.807Z,16.60
2019-03-28T10:25:15.407Z,16.60
2019-03-28T10:26:20.704Z,16.50
2019-03-28T10:27:26.084Z,16.30
2019-03-28T10:28:31.378Z,15.90
2019-03-28T10:29:36.584Z,15.70
2019-03-28T10:30:43.326Z,15.70
2019-03-28T10:31:48.688Z,15.80
2019-03-28T10:32:54.093Z,15.70
2019-03-28T10:33:59.559Z,15.70
2019-03-28T10:35:06.968Z,15.60
2019-03-28T10:36:12.546Z,15.60
2019-03-28T10:37:17.913Z,15.50
2019-03-28T10:38:23.199Z,15.40
2019-03-28T10:39:28.513Z,15.30
2019-03-28T10:40:33.732Z,15.30
2019-03-28T10:41:40.064Z,15.40
2019-03-28T10:42:45.442Z,15.60
2019-03-28T10:43:50.652Z,15.60
2019-03-28T10:44:55.926Z,15.70
2019-03-28T10:46:01.489Z,15.60
2019-03-28T10:47:06.911Z,15.40
2019-03-28T10:48:12.170Z,15.30
2019-03-28T10:49:17.383Z,15.20
2019-03-28T10:50:22.699Z,15.10
2019-03-28T10:51:27.858Z,15.10
2019-03-28T10:52:33.329Z,15.20
2019-03-28T10:53:38.663Z,15.20
2019-03-28T10:54:43.822Z,15.20
2019-03-28T10:55:49.025Z,15.50
2019-03-28T10:56:57.527Z,15.50
2019-03-28T10:58:01.317Z,15.80
2019-03-28T10:59:06.502Z,16.00
2019-03-28T11:00:23.445Z,16.10
2019-03-28T11:01:36.152Z,16.30
2019-03-28T11:02:28.651Z,16.20
2019-03-28T11:03:33.011Z,16.30
2019-03-28T11:04:38.281Z,16.20
2019-03-28T11:05:43.474Z,16.30
2019-03-28T11:06:48.807Z,16.20
2019-03-28T11:07:54.107Z,16.20
2019-03-28T11:08:59.595Z,16.00
2019-03-28T11:10:05.381Z,16.00
2019-03-28T11:11:10.631Z,16.00
2019-03-28T11:12:15.939Z,16.10
2019-03-28T11:13:21.126Z,15.90
2019-03-28T11:14:26.344Z,15.90
2019-03-28T11:15:31.898Z,15.70
2019-03-28T11:16:37.214Z,15.70
2019-03-28T11:17:42.431Z,15.90
2019-03-28T11:18:48.179Z,15.80
2019-03-28T11:19:55.975Z,15.70
2019-03-28T11:21:00.319Z,15.80
2019-03-28T11:22:05.620Z,15.80
2019-03-28T11:23:10.936Z,15.80
2019-03-28T11:24:16.404Z,15.80
2019-03-28T11:25:21.737Z,15.80
2019-03-28T11:26:26.924Z,15.70
2019-03-28T11:27:32.361Z,15.60
2019-03-28T11:28:37.654Z,15.70
2019-03-28T11:29:42.834Z,15.70
2019-03-28T11:30:48.475Z,15.70
2019-03-28T11:31:53.936Z,15.70
2019-03-28T11:32:59.098Z,15.60
2019-03-28T11:34:04.420Z,15.50
2019-03-28T11:35:09.736Z,15.60
2019-03-28T11:36:14.896Z,15.50
2019-03-28T11:37:25.850Z,15.50
2019-03-28T11:38:26.778Z,15.30
2019-03-28T11:39:33.128Z,15.30
2019-03-28T11:40:38.826Z,15.30
2019-03-28T11:41:44.489Z,15.30
2019-03-28T11:42:52.002Z,15.40
2019-03-28T11:43:59.953Z,15.50
2019-03-28T11:45:08.940Z,15.60
2019-03-28T11:46:12.387Z,15.50
2019-03-28T11:47:17.377Z,15.50
2019-03-28T11:48:22.520Z,15.70
2019-03-28T11:49:27.722Z,15.80
2019-03-28T11:50:32.725Z,15.90
2019-03-28T11:51:37.952Z,15.80
2019-03-28T11:52:43.073Z,15.80
2019-03-28T11:53:48.798Z,15.60
2019-03-28T11:54:54.556Z,15.60
2019-03-28T11:56:00.606Z,15.70
2019-03-28T11:57:06.157Z,15.70
2019-03-28T11:58:11.818Z,15.60
2019-03-28T11:59:17.225Z,15.40
2019-03-28T12:00:22.985Z,15.30
2019-03-28T12:01:28.475Z,15.20
2019-03-28T12:02:33.876Z,15.20
2019-03-28T12:03:39.197Z,15.10
2019-03-28T12:04:44.841Z,15.00
2019-03-28T12:05:53.124Z,14.90
2019-03-28T12:06:58.004Z,14.90
2019-03-28T12:08:03.773Z,14.70
2019-03-28T12:09:09.437Z,14.70
2019-03-28T12:10:15.056Z,14.80
2019-03-28T12:11:20.578Z,14.80
2019-03-28T12:12:25.986Z,15.00
2019-03-28T12:13:44.311Z,15.10
2019-03-28T12:14:38.503Z,15.00
2019-03-28T12:15:44.047Z,15.10
2019-03-28T12:16:49.593Z,15.00
2019-03-28T12:17:55.023Z,15.20
2019-03-28T12:19:00.491Z,15.20
2019-03-28T12:20:06.581Z,15.20
2019-03-28T12:21:12.298Z,15.20
2019-03-28T12:22:17.622Z,15.30
2019-03-28T12:23:22.975Z,15.30
2019-03-28T12:24:28.484Z,15.40
2019-03-28T12:25:33.827Z,15.30
2019-03-28T12:26:39.237Z,15.20
2019-03-28T12:27:44.589Z,15.30
2019-03-28T12:28:50.235Z,15.30
2019-03-28T12:29:55.624Z,15.40
2019-03-28T12:31:01.111Z,15.50
2019-03-28T12:32:13.834Z,15.60
2019-03-28T12:33:14.042Z,15.50
2019-03-28T12:34:19.847Z,15.50
2019-03-28T12:35:25.087Z,15.60
2019-03-28T12:36:30.501Z,15.60
2019-03-28T12:37:36.830Z,15.80
2019-03-28T12:38:42.556Z,15.70
2019-03-28T12:39:48.107Z,15.80
2019-03-28T12:40:54.330Z,15.80
2019-03-28T12:41:59.861Z,15.90
2019-03-28T12:43:05.358Z,15.90
2019-03-28T12:44:10.855Z,16.00
2019-03-28T12:45:17.906Z,16.00
2019-03-28T12:46:25.660Z,16.00
2019-03-28T12:47:41.799Z,16.00
2019-03-28T12:48:37.484Z,15.80
2019-03-28T12:49:42.795Z,15.90
2019-03-28T12:50:58.234Z,16.10
2019-03-28T12:51:55.068Z,16.20
2019-03-28T12:53:00.372Z,16.30
2019-03-28T12:54:05.766Z,16.50
2019-03-28T12:55:11.628Z,16.60
2019-03-28T12:56:17.359Z,16.60
2019-03-28T12:57:22.862Z,16.50
2019-03-28T12:58:28.660Z,16.30
2019-03-28T12:59:34.983Z,16.30
2019-03-28T13:00:40.423Z,16.20
2019-03-28T13:01:47.474Z,16.20
2019-03-28T13:02:53.355Z,16.00
2019-03-28T13:03:59.718Z,15.90
2019-03-28T13:05:06.004Z,15.80
2019-03-28T13:06:12.279Z,15.60
2019-03-28T13:07:18.959Z,15.40
2019-03-28T13:08:24.823Z,15.40
2019-03-28T13:09:30.302Z,15.60
2019-03-28T13:10:36.442Z,15.70
2019-03-28T13:11:41.825Z,15.70
2019-03-28T13:12:47.489Z,15.70
2019-03-28T13:13:53.407Z,15.80
2019-03-28T13:14:59.027Z,15.70
2019-03-28T13:16:05.739Z,15.70
2019-03-28T13:17:11.942Z,15.70
2019-03-28T13:18:17.655Z,15.80
2019-03-28T13:19:23.088Z,15.80
2019-03-28T13:20:28.533Z,15.70
2019-03-28T13:21:34.279Z,15.70
2019-03-28T13:22:39.737Z,15.60
2019-03-28T13:23:45.046Z,15.50
2019-03-28T13:24:50.533Z,15.40
2019-03-28T13:25:55.970Z,15.50
2019-03-28T13:27:01.500Z,15.50
2019-03-28T13:28:06.843Z,15.30
2019-03-28T13:29:12.557Z,15.50
2019-03-28T13:30:18.463Z,15.80
2019-03-28T13:31:23.743Z,15.90
2019-03-28T13:32:41.099Z,16.10
2019-03-28T13:33:36.866Z,16.20
2019-03-28T13:34:42.399Z,16.20
2019-03-28T13:35:47.953Z,16.40
2019-03-28T13:36:53.794Z,16.40
2019-03-28T13:37:59.032Z,16.30
2019-03-28T13:39:06.482Z,16.20
2019-03-28T13:40:12.543Z,16.30
2019-03-28T13:41:18.085Z,16.30
2019-03-28T13:42:23.680Z,16.50
2019-03-28T13:43:28.998Z,16.50
2019-03-28T13:44:34.555Z,16.50
2019-03-28T13:45:40.517Z,16.50
2019-03-28T13:46:45.944Z,16.60
2019-03-28T13:47:54.146Z,16.40
2019-03-28T13:48:59.093Z,16.50
2019-03-28T13:50:05.015Z,16.50
2019-03-28T13:51:10.412Z,16.40
2019-03-28T13:52:16.043Z,16.60
2019-03-28T13:53:21.403Z,16.50
2019-03-28T13:54:26.715Z,16.70
2019-03-28T13:55:32.595Z,16.80
2019-03-28T13:56:38.642Z,17.00
2019-03-28T13:57:44.120Z,17.10
2019-03-28T13:58:49.533Z,17.10
2019-03-28T13:59:57.930Z,16.90
2019-03-28T14:01:03.322Z,16.90
2019-03-28T14:02:08.940Z,16.60
2019-03-28T14:03:14.422Z,16.40
2019-03-28T14:04:19.789Z,16.40
2019-03-28T14:05:25.929Z,16.30
2019-03-28T14:06:32.168Z,16.20
2019-03-28T14:07:38.727Z,16.10
2019-03-28T14:08:43.998Z,16.10
2019-03-28T14:09:49.565Z,16.20
2019-03-28T14:10:55.480Z,16.30
2019-03-28T14:12:01.491Z,16.40
2019-03-28T14:13:07.273Z,16.40
2019-03-28T14:14:13.511Z,16.30
2019-03-28T14:15:19.547Z,15.90
2019-03-28T14:16:25.043Z,15.80
2019-03-28T14:17:30.450Z,15.70
2019-03-28T14:18:35.990Z,15.60
2019-03-28T14:19:41.565Z,15.60
2019-03-28T14:20:51.193Z,15.60
2019-03-28T14:21:58.320Z,15.70
2019-03-28T14:23:04.929Z,15.60
2019-03-28T14:24:11.784Z,15.60
2019-03-28T14:25:18.266Z,15.80
2019-03-28T14:26:23.828Z,15.70
2019-03-28T14:27:30.076Z,15.70
2019-03-28T14:28:35.696Z,15.80
2019-03-28T14:29:41.249Z,16.00
2019-03-28T14:30:46.946Z,16.20
2019-03-28T14:31:52.622Z,16.40
2019-03-28T14:33:10.668Z,16.50
2019-03-28T14:34:05.779Z,16.60
2019-03-28T14:35:11.165Z,16.70
2019-03-28T14:36:17.082Z,16.70
2019-03-28T14:37:22.289Z,16.60
2019-03-28T14:38:27.719Z,16.70
2019-03-28T14:39:33.238Z,16.80
2019-03-28T14:40:38.717Z,16.90